CheckWX is a tool to help pilots better visualize weather data.  It is not intended as a substitute for an official pre-flight weather briefing.

04:58:25 UTC

F00 METAR
Jones Field Airport
Bonham, Texas, USA
Current

23 mins ago

KF00 270435Z AUTO 16004KT 10SM CLR 23/20 A3014 RMK AO2 T02270204
Observed
Jun-27 @ 04:35 UTC
Wind
  • 160° at 4 KTS
Visibility
10 SM
Flight Rules
VFR
Cloud Levels
  • Clear skies
Temperature
23°C / 73°F
Dewpoint
20°C / 68°F
Humidity
83%
Altimeter
30.14" Hg
Pressure
1020.62 hPa
Previous

43 mins ago

KF00 270415Z AUTO 16006KT 10SM CLR 23/20 A3015 RMK AO2 T02310203
Observed
Jun-27 @ 04:15 UTC
Wind
  • 160° at 6 KTS
Visibility
10 SM
Flight Rules
VFR
Cloud Levels
  • Clear skies
Temperature
23°C / 73°F
Dewpoint
20°C / 68°F
Humidity
83%
Altimeter
30.15" Hg
Pressure
1021.02 hPa
Previous

1 hour ago

KF00 270355Z AUTO 15006KT 10SM CLR 23/21 A3015 RMK AO2 T02330212
Observed
Jun-27 @ 03:55 UTC
Wind
  • 150° at 6 KTS
Visibility
10 SM
Flight Rules
VFR
Cloud Levels
  • Clear skies
Temperature
23°C / 73°F
Dewpoint
21°C / 70°F
Humidity
89%
Altimeter
30.15" Hg
Pressure
1021.02 hPa